Terminal Aerodrome Forecast
Issued by NWS

Home | Current Version | Previous Version | Text Only | Print | Product List | Glossary Off
Versions: 1 2 3 4 5 6 7 8 9 10 11 12 13 14 15 16 17 18 19 20 21 22 23 24 25 26

529
FTUS43 KBIS 251548 AAG
TAFMOT
TAF AMD
KMOT 251548Z 2516/2612 14012KT P6SM OVC120
     FM252100 20009KT P6SM BKN120
     FM260000 17006KT P6SM OVC100
     FM261000 22004KT P6SM OVC025=

USA.gov is the U.S. government's official web portal to all federal, state and local government web resources and services.